Terminal Aerodrome Forecast
Issued by NWS Missoula, MT

Home | Current Version | Previous Version | Text Only | Print | Product List | Glossary On
Versions: 1 2 3 4 5 6 7 8 9 10 11 12 13
049
FTUS45 KMSO 251120
TAFMSO
TAF
KMSO 251120Z 2512/2612 VRB03KT P6SM OVC080
     FM251800 28010G18KT P6SM BKN060
     FM260300 26005KT P6SM BKN070=

USA.gov is the U.S. government's official web portal to all federal, state and local government web resources and services.